Time;durP1;ratioP1;P1;durP2;ratioP2;P2;SDS_P1;SDS_P2;PMS_P1;PMS_P2;Temp;Humidity;BMP_temperature;BMP_pressure;BME280_temperature;BME280_humidity;BME280_pressure;Samples;Min_cycle;Max_cycle;Signal;HPM_P1;HPM_P2
2023/05/10 00:02:11;;;;;;;7.90;4.00;;;12.50;43.70;;;;;;4985127;28;116988;-81
2023/05/10 00:04:39;;;;;;;5.57;3.90;;;12.40;43.00;;;;;;4984463;28;115844;-80
2023/05/10 00:07:06;;;;;;;5.80;3.47;;;12.40;44.30;;;;;;4986597;28;114239;-81
2023/05/10 00:09:33;;;;;;;6.85;3.55;;;12.40;42.40;;;;;;4987063;28;114787;-82
2023/05/10 00:12:01;;;;;;;7.10;3.80;;;12.30;44.70;;;;;;4985337;28;114923;-82
2023/05/10 00:14:30;;;;;;;4.82;3.55;;;12.30;42.30;;;;;;4985746;28;114682;-82
2023/05/10 00:16:57;;;;;;;6.03;3.90;;;12.20;42.70;;;;;;4986481;28;114386;-80
2023/05/10 00:19:25;;;;;;;7.35;3.63;;;12.00;42.90;;;;;;4984091;28;114213;-81
2023/05/10 00:21:52;;;;;;;6.13;3.47;;;11.80;44.80;;;;;;4985223;28;114891;-81
2023/05/10 00:24:19;;;;;;;5.57;3.50;;;11.80;45.20;;;;;;4983518;28;115755;-81
2023/05/10 00:26:46;;;;;;;5.00;3.50;;;11.80;45.30;;;;;;5001014;28;114295;-82
2023/05/10 00:29:13;;;;;;;6.38;3.90;;;11.90;45.60;;;;;;4983139;28;114224;-80
2023/05/10 00:31:40;;;;;;;6.25;3.67;;;12.10;45.30;;;;;;4984204;28;115168;-81
2023/05/10 00:34:09;;;;;;;5.25;3.40;;;12.10;46.00;;;;;;4984144;28;117796;-81
2023/05/10 00:36:36;;;;;;;5.88;3.75;;;12.20;45.60;;;;;;4983320;28;114321;-82
2023/05/10 00:39:03;;;;;;;7.07;3.83;;;12.30;45.60;;;;;;5001553;28;114327;-81
2023/05/10 00:41:33;;;;;;;4.93;3.67;;;12.40;44.30;;;;;;4985073;28;114950;-81
2023/05/10 00:44:01;;;;;;;6.38;4.30;;;12.50;45.70;;;;;;4984120;28;114694;-81
2023/05/10 00:46:29;;;;;;;9.57;4.70;;;12.50;45.70;;;;;;4967861;28;114802;-81
2023/05/10 00:48:57;;;;;;;6.68;3.80;;;12.60;45.40;;;;;;5001725;28;114354;-81
2023/05/10 00:51:24;;;;;;;10.18;4.78;;;12.60;45.70;;;;;;4983683;28;115057;-81
2023/05/10 00:53:51;;;;;;;7.40;4.22;;;12.70;44.70;;;;;;5001287;28;114725;-81
2023/05/10 00:56:20;;;;;;;7.72;4.00;;;12.70;45.30;;;;;;4988025;28;114557;-82
2023/05/10 00:58:47;;;;;;;8.15;4.50;;;12.70;45.10;;;;;;4988296;28;114621;-81
2023/05/10 01:01:14;;;;;;;7.57;4.32;;;12.70;45.70;;;;;;5003832;28;114975;-81
2023/05/10 01:03:41;;;;;;;7.30;4.50;;;12.70;45.20;;;;;;5003592;28;114647;-81
2023/05/10 01:06:09;;;;;;;8.30;4.43;;;12.70;45.10;;;;;;5004689;28;114387;-81
2023/05/10 01:08:37;;;;;;;10.27;4.35;;;12.70;45.20;;;;;;5004865;28;114659;-81
2023/05/10 01:11:04;;;;;;;8.77;4.88;;;12.70;45.40;;;;;;4986299;28;116824;-81
2023/05/10 01:13:39;;;;;;;9.30;4.43;;;12.70;45.00;;;;;;5003474;28;114656;-81
2023/05/10 01:16:06;;;;;;;9.45;5.00;;;12.70;45.00;;;;;;5004417;28;114191;-82
2023/05/10 01:18:38;;;;;;;7.00;4.30;;;12.70;45.60;;;;;;5004986;28;114334;-81
2023/05/10 01:21:08;;;;;;;6.82;4.30;;;12.70;45.60;;;;;;5004017;28;114881;-81
2023/05/10 01:23:43;;;;;;;7.47;4.10;;;12.70;45.40;;;;;;4970466;28;114759;-81
2023/05/10 01:26:15;;;;;;;7.00;3.95;;;12.70;45.60;;;;;;4990536;28;114242;-80
2023/05/10 01:28:53;;;;;;;8.13;3.97;;;12.70;45.80;;;;;;4990393;28;114729;-80
2023/05/10 01:31:40;;;;;;;7.30;4.05;;;12.80;45.80;;;;;;4986834;28;114865;-81
2023/05/10 01:34:17;;;;;;;8.57;4.18;;;12.80;45.50;;;;;;5003063;28;115871;-81
2023/05/10 01:36:53;;;;;;;9.52;4.43;;;12.80;46.10;;;;;;5004538;28;114574;-80
2023/05/10 01:39:41;;;;;;;7.55;4.07;;;12.70;44.90;;;;;;4985616;28;114547;-80
2023/05/10 01:42:11;;;;;;;6.85;4.05;;;12.70;45.30;;;;;;5003456;28;114996;-80
2023/05/10 01:45:11;;;;;;;5.50;3.72;;;12.70;45.70;;;;;;4987657;28;114776;-80
2023/05/10 01:47:44;;;;;;;5.97;4.00;;;12.70;45.50;;;;;;4980955;28;114470;-80
2023/05/10 01:50:22;;;;;;;5.38;3.70;;;12.70;45.60;;;;;;5004690;28;114387;-80
2023/05/10 01:52:54;;;;;;;5.75;3.53;;;12.70;45.90;;;;;;4970169;28;114933;-82
2023/05/10 01:55:24;;;;;;;6.28;3.75;;;12.70;43.60;;;;;;5002790;28;114986;-83
2023/05/10 01:57:56;;;;;;;5.47;4.00;;;12.60;45.40;;;;;;4970631;28;114190;-82
2023/05/10 02:00:23;;;;;;;7.05;4.10;;;12.60;45.90;;;;;;4951652;28;114354;-82
2023/05/10 02:02:51;;;;;;;7.80;3.95;;;12.60;45.60;;;;;;5002504;28;114877;-82
2023/05/10 02:05:18;;;;;;;5.72;4.15;;;12.70;45.60;;;;;;4986532;28;114742;-81
2023/05/10 02:07:46;;;;;;;6.63;3.80;;;12.70;45.90;;;;;;4986969;28;114617;-82
2023/05/10 02:10:13;;;;;;;6.22;4.00;;;12.70;45.80;;;;;;4987549;28;114679;-82
2023/05/10 02:12:42;;;;;;;5.80;3.53;;;12.70;45.80;;;;;;4986683;28;115044;-82
2023/05/10 02:15:10;;;;;;;6.32;3.67;;;12.70;46.30;;;;;;4986314;28;114775;-81
2023/05/10 02:17:37;;;;;;;5.57;3.72;;;12.70;45.90;;;;;;4986932;28;114526;-81
2023/05/10 02:20:05;;;;;;;5.15;3.40;;;12.70;45.90;;;;;;4986995;28;114405;-83
2023/05/10 02:22:33;;;;;;;5.60;3.58;;;12.70;45.90;;;;;;4986224;28;115031;-82
2023/05/10 02:25:00;;;;;;;6.70;3.80;;;12.70;46.30;;;;;;4970044;28;114917;-83
2023/05/10 02:27:31;;;;;;;6.82;3.58;;;12.80;46.00;;;;;;4987032;28;114358;-82
2023/05/10 02:29:58;;;;;;;5.97;3.90;;;12.80;46.10;;;;;;4987968;28;114185;-82
2023/05/10 02:32:26;;;;;;;8.55;4.20;;;12.70;46.00;;;;;;4970835;28;115710;-81
2023/05/10 02:34:53;;;;;;;6.03;3.78;;;12.70;45.40;;;;;;4986141;28;115216;-82
2023/05/10 02:37:22;;;;;;;5.90;3.67;;;12.70;45.80;;;;;;4954762;28;114801;-82
2023/05/10 02:39:50;;;;;;;4.57;3.33;;;12.70;45.90;;;;;;4970434;28;114532;-82
2023/05/10 02:42:24;;;;;;;6.18;3.92;;;12.70;46.10;;;;;;4985517;28;115730;-81
2023/05/10 02:44:53;;;;;;;6.82;3.88;;;12.70;46.10;;;;;;4969716;28;114702;-82
2023/05/10 02:47:21;;;;;;;5.57;3.58;;;12.60;46.30;;;;;;4980752;28;114486;-80
2023/05/10 02:49:48;;;;;;;5.35;3.67;;;12.60;46.10;;;;;;5003583;28;114310;-81
2023/05/10 02:52:26;;;;;;;6.43;4.20;;;12.60;46.30;;;;;;4986783;28;114931;-81
2023/05/10 02:54:55;;;;;;;8.90;4.05;;;12.60;46.10;;;;;;5002557;28;114930;-81
2023/05/10 02:57:26;;;;;;;6.22;4.22;;;12.60;46.10;;;;;;4983341;28;114535;-82
2023/05/10 02:59:54;;;;;;;7.10;4.03;;;12.50;46.50;;;;;;4982668;28;114469;-81
2023/05/10 03:02:21;;;;;;;7.30;4.47;;;12.50;46.30;;;;;;5001545;28;115541;-81
2023/05/10 03:04:48;;;;;;;8.00;4.32;;;12.50;45.60;;;;;;4981918;28;118599;-81
2023/05/10 03:07:16;;;;;;;9.20;4.82;;;12.50;46.50;;;;;;4986487;28;114446;-81
2023/05/10 03:09:45;;;;;;;6.18;4.22;;;12.40;46.60;;;;;;4987176;28;114186;-81
2023/05/10 03:12:21;;;;;;;6.55;4.22;;;12.40;46.40;;;;;;4986720;28;115522;-81
2023/05/10 03:15:02;;;;;;;5.82;3.88;;;12.50;46.60;;;;;;5002500;28;115076;-81
2023/05/10 03:17:42;;;;;;;7.72;3.85;;;12.50;46.70;;;;;;4985325;28;114719;-82
2023/05/10 03:20:11;;;;;;;8.63;4.38;;;12.50;46.80;;;;;;4971387;28;114852;-82
2023/05/10 03:22:44;;;;;;;6.15;4.50;;;12.50;45.80;;;;;;4968300;28;115104;-82
2023/05/10 03:25:11;;;;;;;8.52;4.43;;;12.50;46.00;;;;;;4969386;28;117321;-82
2023/05/10 03:27:41;;;;;;;6.43;4.40;;;12.50;46.30;;;;;;4967946;28;114600;-81
2023/05/10 03:30:10;;;;;;;7.28;4.30;;;12.40;46.10;;;;;;4988186;28;115140;-82
2023/05/10 03:32:37;;;;;;;6.60;4.70;;;12.40;46.60;;;;;;4985250;28;115161;-82
2023/05/10 03:35:11;;;;;;;6.30;3.80;;;12.50;45.70;;;;;;4985050;28;114818;-83
2023/05/10 03:37:39;;;;;;;6.72;4.25;;;12.40;46.80;;;;;;4985597;28;114614;-82
2023/05/10 03:40:06;;;;;;;7.55;3.92;;;12.50;46.50;;;;;;4986775;28;114563;-82
2023/05/10 03:42:36;;;;;;;7.70;4.60;;;12.60;46.80;;;;;;4984440;28;114934;-81
2023/05/10 03:45:03;;;;;;;9.35;4.68;;;12.70;45.40;;;;;;4985874;28;114655;-81
2023/05/10 03:47:31;;;;;;;8.32;4.40;;;12.70;45.40;;;;;;4983642;28;114475;-81
2023/05/10 03:49:59;;;;;;;6.65;4.50;;;12.80;45.70;;;;;;4969777;28;114419;-82
2023/05/10 03:52:28;;;;;;;10.80;5.25;;;13.10;46.00;;;;;;4984116;28;115053;-82
2023/05/10 03:54:55;;;;;;;8.45;5.13;;;13.40;45.10;;;;;;4967126;28;115438;-81
2023/05/10 03:57:23;;;;;;;10.10;5.82;;;13.70;43.90;;;;;;4984721;28;114439;-81
2023/05/10 03:59:50;;;;;;;6.72;4.57;;;13.90;43.80;;;;;;4952761;28;114263;-82
2023/05/10 04:02:17;;;;;;;7.78;4.75;;;14.10;43.40;;;;;;5000557;28;115050;-82
2023/05/10 04:04:45;;;;;;;13.80;6.20;;;14.20;42.90;;;;;;4983893;28;114607;-80
2023/05/10 04:07:12;;;;;;;11.05;5.28;;;14.40;42.10;;;;;;5002020;28;114446;-81
2023/05/10 04:09:42;;;;;;;8.68;5.60;;;14.50;41.50;;;;;;4968912;28;114414;-82
2023/05/10 04:12:10;;;;;;;7.47;5.30;;;14.50;42.30;;;;;;4950884;28;118684;-81
2023/05/10 04:14:37;;;;;;;8.23;5.30;;;14.60;41.70;;;;;;4983253;28;116115;-81
2023/05/10 04:17:05;;;;;;;8.20;5.45;;;14.70;41.90;;;;;;4984706;28;114494;-82
2023/05/10 04:19:32;;;;;;;8.82;5.03;;;14.80;41.60;;;;;;4986105;28;114364;-81
2023/05/10 04:22:00;;;;;;;8.35;5.40;;;14.80;41.70;;;;;;4983785;28;116167;-81
2023/05/10 04:24:27;;;;;;;10.00;5.30;;;14.80;40.60;;;;;;4983879;28;115726;-81
2023/05/10 04:26:55;;;;;;;8.55;5.30;;;14.80;41.10;;;;;;4987642;28;114267;-82
2023/05/10 04:29:24;;;;;;;7.55;4.22;;;14.80;40.80;;;;;;4969343;28;114804;-82
2023/05/10 04:31:53;;;;;;;7.88;4.80;;;14.80;40.40;;;;;;4985901;28;114907;-81
2023/05/10 04:34:21;;;;;;;9.32;4.63;;;14.90;39.70;;;;;;4987273;28;115215;-82
2023/05/10 04:36:50;;;;;;;8.52;4.93;;;15.00;39.20;;;;;;5003938;28;114444;-80
2023/05/10 04:39:18;;;;;;;7.55;4.80;;;15.00;39.30;;;;;;4989386;28;114654;-81
2023/05/10 04:41:45;;;;;;;7.97;4.55;;;14.80;39.00;;;;;;4987031;28;116414;-81
2023/05/10 04:44:12;;;;;;;8.85;5.38;;;14.80;40.10;;;;;;4982963;28;114704;-80
2023/05/10 04:46:39;;;;;;;8.57;4.65;;;14.90;39.30;;;;;;4988317;28;114754;-81
2023/05/10 04:49:06;;;;;;;7.50;5.22;;;14.90;38.90;;;;;;4971260;28;114357;-81
2023/05/10 04:51:33;;;;;;;8.90;5.13;;;15.00;38.80;;;;;;4987315;28;114921;-81
2023/05/10 04:54:01;;;;;;;10.57;5.70;;;15.10;39.30;;;;;;4985769;28;115521;-82
2023/05/10 04:56:33;;;;;;;10.13;5.38;;;15.20;39.10;;;;;;5003206;28;114591;-81
2023/05/10 04:59:00;;;;;;;8.57;5.35;;;15.20;39.30;;;;;;4990571;28;114231;-82
2023/05/10 05:01:28;;;;;;;9.48;5.40;;;15.20;38.80;;;;;;4970045;28;115047;-82
2023/05/10 05:03:55;;;;;;;9.75;5.00;;;15.30;39.60;;;;;;4986304;28;116995;-82
2023/05/10 05:06:27;;;;;;;10.05;4.95;;;15.30;38.80;;;;;;4985116;28;114321;-83
2023/05/10 05:08:57;;;;;;;7.55;4.70;;;15.40;38.60;;;;;;4985278;28;114525;-82
2023/05/10 05:11:25;;;;;;;7.75;4.60;;;15.40;38.20;;;;;;4984637;28;116253;-82
2023/05/10 05:13:52;;;;;;;6.72;4.40;;;15.60;38.20;;;;;;4986094;28;114930;-81
2023/05/10 05:16:20;;;;;;;5.53;3.90;;;15.70;38.30;;;;;;4986494;28;114350;-80
2023/05/10 05:18:50;;;;;;;8.43;4.18;;;15.80;38.00;;;;;;5002460;28;114250;-80
2023/05/10 05:21:18;;;;;;;5.35;3.55;;;16.00;37.30;;;;;;4987396;28;114957;-82
2023/05/10 05:23:45;;;;;;;6.45;3.50;;;16.10;36.80;;;;;;4937692;28;117664;-82
2023/05/10 05:26:12;;;;;;;7.97;3.50;;;16.10;36.50;;;;;;5002325;28;114323;-81
2023/05/10 05:28:39;;;;;;;6.55;3.60;;;16.10;36.50;;;;;;4988536;28;114398;-82
2023/05/10 05:31:08;;;;;;;6.18;3.95;;;16.10;36.40;;;;;;5002750;28;115108;-80
2023/05/10 05:33:35;;;;;;;6.22;3.53;;;16.00;36.50;;;;;;5003157;28;116164;-82
2023/05/10 05:36:05;;;;;;;6.70;4.10;;;16.00;36.60;;;;;;4987897;28;114409;-81
2023/05/10 05:38:32;;;;;;;5.07;3.40;;;16.00;36.20;;;;;;5003791;28;114383;-81
2023/05/10 05:41:00;;;;;;;6.32;3.90;;;16.00;36.90;;;;;;5002155;28;115090;-82
2023/05/10 05:43:27;;;;;;;5.18;3.47;;;16.20;36.20;;;;;;4982584;28;120203;-81
2023/05/10 05:45:57;;;;;;;9.68;3.50;;;16.20;36.20;;;;;;4984706;28;114310;-83
2023/05/10 05:48:25;;;;;;;7.00;3.55;;;16.20;35.80;;;;;;4987195;28;114334;-82
2023/05/10 05:50:56;;;;;;;5.25;3.63;;;16.00;36.40;;;;;;4986683;28;117020;-81
2023/05/10 05:53:23;;;;;;;4.82;3.65;;;16.10;36.60;;;;;;4985265;28;116670;-81
2023/05/10 05:55:54;;;;;;;7.18;4.75;;;16.30;36.30;;;;;;4986100;28;114237;-80
2023/05/10 05:58:22;;;;;;;6.25;3.55;;;16.50;36.90;;;;;;4987060;28;114398;-83
2023/05/10 06:00:49;;;;;;;7.45;4.63;;;16.80;36.50;;;;;;4953193;28;119552;-82
2023/05/10 06:03:16;;;;;;;6.13;3.45;;;17.00;35.90;;;;;;4968986;28;117418;-82
2023/05/10 06:05:43;;;;;;;6.25;3.70;;;17.20;36.00;;;;;;4987857;28;114298;-80
2023/05/10 06:08:10;;;;;;;6.47;3.72;;;17.40;35.40;;;;;;4964047;28;114687;-82
2023/05/10 06:10:37;;;;;;;5.40;3.60;;;17.60;35.10;;;;;;4985312;28;114974;-81
2023/05/10 06:13:07;;;;;;;10.55;4.13;;;17.80;34.80;;;;;;5001395;28;116799;-80
2023/05/10 06:15:34;;;;;;;6.18;3.65;;;17.80;34.50;;;;;;5000927;28;114899;-82
2023/05/10 06:18:01;;;;;;;5.63;3.35;;;17.80;34.60;;;;;;5002874;28;114566;-81
2023/05/10 06:20:31;;;;;;;6.10;3.45;;;17.80;34.90;;;;;;4986884;28;114979;-81
2023/05/10 06:22:58;;;;;;;4.25;2.95;;;17.80;34.20;;;;;;4985525;28;114769;-81
2023/05/10 06:25:27;;;;;;;7.32;3.50;;;17.80;34.50;;;;;;4987822;28;114269;-81
2023/05/10 06:27:57;;;;;;;7.60;3.20;;;17.90;34.80;;;;;;4984229;28;114902;-81
2023/05/10 06:30:28;;;;;;;6.22;3.28;;;18.10;34.30;;;;;;4984716;28;115113;-82
2023/05/10 06:32:56;;;;;;;5.25;3.10;;;18.20;34.10;;;;;;4984485;28;115644;-83
2023/05/10 06:35:24;;;;;;;5.07;3.13;;;18.20;33.60;;;;;;4984958;28;114823;-81
2023/05/10 06:37:51;;;;;;;5.00;3.03;;;18.10;33.70;;;;;;4987522;28;114202;-80
2023/05/10 06:40:19;;;;;;;4.43;2.85;;;18.00;33.90;;;;;;4986255;28;114991;-81
2023/05/10 06:42:47;;;;;;;7.63;2.85;;;18.00;33.50;;;;;;4986335;28;115766;-81
2023/05/10 06:45:14;;;;;;;4.55;2.90;;;17.80;33.50;;;;;;4987258;28;114468;-81
2023/05/10 06:47:42;;;;;;;5.25;2.92;;;17.60;33.80;;;;;;4990160;28;114527;-81
2023/05/10 06:50:11;;;;;;;4.93;3.00;;;17.30;34.00;;;;;;5002036;28;115041;-82
2023/05/10 06:52:38;;;;;;;4.68;3.03;;;17.20;34.50;;;;;;4985528;28;114620;-82
2023/05/10 06:55:06;;;;;;;4.72;2.67;;;17.30;34.80;;;;;;4986786;28;114521;-81
2023/05/10 06:57:33;;;;;;;4.80;2.83;;;17.50;34.50;;;;;;4986284;28;114375;-81
2023/05/10 07:00:00;;;;;;;7.28;3.30;;;17.70;33.90;;;;;;4986295;28;114964;-81
2023/05/10 07:02:27;;;;;;;5.07;2.35;;;17.70;33.80;;;;;;4980342;28;115396;-80
2023/05/10 07:04:54;;;;;;;3.60;2.50;;;17.80;33.90;;;;;;5001485;28;114387;-80
2023/05/10 07:07:21;;;;;;;4.65;2.33;;;17.80;33.60;;;;;;4987545;28;114672;-81
2023/05/10 07:09:49;;;;;;;3.95;2.42;;;17.70;33.30;;;;;;4986105;28;119176;-81
2023/05/10 07:12:16;;;;;;;5.72;2.40;;;17.50;34.10;;;;;;4986287;28;114683;-81
2023/05/10 07:14:44;;;;;;;4.47;2.70;;;17.50;34.10;;;;;;5003135;28;114400;-80
2023/05/10 07:17:11;;;;;;;4.97;2.47;;;17.40;34.20;;;;;;4987362;28;114285;-81
2023/05/10 07:19:38;;;;;;;5.60;3.38;;;17.50;34.20;;;;;;4986090;28;115121;-80
2023/05/10 07:22:05;;;;;;;4.90;2.28;;;17.60;34.30;;;;;;4985865;28;114930;-80
2023/05/10 07:24:33;;;;;;;3.78;2.45;;;17.50;33.70;;;;;;4985803;28;116273;-81
2023/05/10 07:27:00;;;;;;;5.07;2.30;;;17.40;34.30;;;;;;4983103;28;114685;-81
2023/05/10 07:29:28;;;;;;;4.63;2.58;;;17.40;34.40;;;;;;4985759;28;115499;-81
2023/05/10 07:31:55;;;;;;;4.32;2.30;;;17.30;34.00;;;;;;4979218;28;115338;-81
2023/05/10 07:34:25;;;;;;;4.10;2.42;;;17.00;34.40;;;;;;5002151;28;114514;-82
2023/05/10 07:36:52;;;;;;;4.90;2.50;;;16.80;34.90;;;;;;4987095;28;117005;-81
2023/05/10 07:39:20;;;;;;;4.75;2.50;;;16.70;35.40;;;;;;4983545;28;115628;-81
2023/05/10 07:41:54;;;;;;;6.20;2.50;;;16.90;35.80;;;;;;4982822;28;116584;-81
2023/05/10 07:44:22;;;;;;;4.47;2.38;;;17.20;34.80;;;;;;4967077;28;120709;-80
2023/05/10 07:46:49;;;;;;;5.70;2.75;;;17.30;35.00;;;;;;4985123;28;118002;-81
2023/05/10 07:49:16;;;;;;;6.82;2.70;;;17.10;34.80;;;;;;4984715;28;116072;-81
2023/05/10 07:51:43;;;;;;;4.65;2.83;;;17.00;35.10;;;;;;5001452;28;114656;-81
2023/05/10 07:54:12;;;;;;;3.50;2.22;;;16.90;34.90;;;;;;5001002;28;114493;-81
2023/05/10 07:56:45;;;;;;;3.83;2.20;;;17.10;35.20;;;;;;4987522;28;114325;-81
2023/05/10 07:59:15;;;;;;;4.82;2.63;;;17.20;34.80;;;;;;4986086;28;115310;-81
2023/05/10 08:01:42;;;;;;;4.15;2.33;;;17.10;34.90;;;;;;4985809;28;115181;-81
2023/05/10 08:04:09;;;;;;;11.88;2.80;;;17.00;34.80;;;;;;4987432;28;114288;-80
2023/05/10 08:06:37;;;;;;;5.88;2.50;;;16.90;35.00;;;;;;4985834;28;114727;-82
2023/05/10 08:09:04;;;;;;;6.85;2.40;;;17.10;35.40;;;;;;4988671;28;114983;-79
2023/05/10 08:11:31;;;;;;;4.78;2.50;;;17.30;35.20;;;;;;4988630;28;115271;-80
2023/05/10 08:14:01;;;;;;;6.13;2.72;;;17.60;34.70;;;;;;4988444;28;114384;-81
2023/05/10 08:16:29;;;;;;;4.68;2.45;;;17.50;34.40;;;;;;4989954;28;114414;-81
2023/05/10 08:18:56;;;;;;;3.70;2.40;;;17.50;34.60;;;;;;4988370;28;114936;-81
2023/05/10 08:21:23;;;;;;;4.97;2.50;;;17.50;35.00;;;;;;4988554;28;114577;-81
2023/05/10 08:23:51;;;;;;;4.05;2.55;;;17.60;34.80;;;;;;4988264;28;114369;-80
2023/05/10 08:26:18;;;;;;;4.10;2.60;;;17.80;34.50;;;;;;4980079;28;114521;-81
2023/05/10 08:28:46;;;;;;;4.00;2.28;;;17.80;35.30;;;;;;4981375;28;117034;-81
2023/05/10 08:31:13;;;;;;;4.38;2.30;;;18.00;35.00;;;;;;4997808;28;114719;-82
2023/05/10 08:33:40;;;;;;;4.85;2.53;;;18.20;33.80;;;;;;4990094;28;114225;-81
2023/05/10 08:36:10;;;;;;;4.47;2.33;;;18.00;34.10;;;;;;4994757;28;114913;-81
2023/05/10 08:38:37;;;;;;;3.83;2.40;;;18.00;34.50;;;;;;4994444;28;115144;-81
2023/05/10 08:41:05;;;;;;;5.72;2.45;;;18.20;34.60;;;;;;4986254;28;114742;-81
2023/05/10 08:43:33;;;;;;;5.63;2.60;;;18.20;34.50;;;;;;4998550;28;115121;-82
2023/05/10 08:46:00;;;;;;;5.78;2.35;;;18.40;34.50;;;;;;4987463;28;115323;-80
2023/05/10 08:48:28;;;;;;;3.22;2.30;;;18.50;33.70;;;;;;4988712;28;115005;-79
2023/05/10 08:50:56;;;;;;;4.95;2.47;;;18.60;33.60;;;;;;4988358;28;119525;-80
2023/05/10 08:53:25;;;;;;;4.47;2.42;;;18.50;33.50;;;;;;4988951;28;114503;-81
2023/05/10 08:55:52;;;;;;;4.07;2.10;;;18.40;33.90;;;;;;5005152;28;114467;-81
2023/05/10 08:58:20;;;;;;;3.90;2.10;;;18.40;33.60;;;;;;4986993;28;116185;-82
2023/05/10 09:00:48;;;;;;;5.50;2.17;;;18.30;33.80;;;;;;4985396;28;114565;-80
2023/05/10 09:03:15;;;;;;;4.72;2.22;;;18.30;34.00;;;;;;4982676;28;114727;-81
2023/05/10 09:05:44;;;;;;;4.57;2.50;;;18.40;33.60;;;;;;4950239;28;114265;-80
2023/05/10 09:08:12;;;;;;;3.42;2.10;;;18.50;34.10;;;;;;4972706;28;118969;-83
2023/05/10 09:10:40;;;;;;;5.25;2.28;;;18.60;34.00;;;;;;4999754;28;114776;-81
2023/05/10 09:13:07;;;;;;;4.03;2.10;;;18.80;33.70;;;;;;4987750;28;114652;-83
2023/05/10 09:15:34;;;;;;;4.20;2.08;;;18.90;33.10;;;;;;5003037;28;114674;-82
2023/05/10 09:18:02;;;;;;;3.03;2.20;;;19.00;33.00;;;;;;4987326;28;115179;-82
2023/05/10 09:20:29;;;;;;;3.30;1.98;;;19.20;33.10;;;;;;4987478;28;115230;-81
2023/05/10 09:22:56;;;;;;;6.75;2.40;;;19.50;32.40;;;;;;4990975;28;114580;-81
2023/05/10 09:25:23;;;;;;;4.30;2.10;;;19.50;31.90;;;;;;4992590;28;114275;-81
2023/05/10 09:27:51;;;;;;;10.32;2.63;;;19.40;31.90;;;;;;4987256;28;119735;-81
2023/05/10 09:30:24;;;;;;;3.83;2.20;;;19.50;32.60;;;;;;4987583;28;114677;-81
2023/05/10 09:32:51;;;;;;;3.70;2.00;;;19.40;32.00;;;;;;4988586;28;114705;-81
2023/05/10 09:35:20;;;;;;;4.00;2.30;;;19.40;31.80;;;;;;5002021;28;114460;-81
2023/05/10 09:37:49;;;;;;;3.88;1.98;;;19.30;32.10;;;;;;4984507;28;114882;-80
2023/05/10 09:40:17;;;;;;;4.75;1.98;;;19.30;32.20;;;;;;5001996;28;114749;-82
2023/05/10 09:42:55;;;;;;;5.03;2.30;;;19.20;32.20;;;;;;4986560;28;116832;-81
2023/05/10 09:45:23;;;;;;;3.63;2.10;;;19.10;31.90;;;;;;4982726;28;114673;-81
2023/05/10 09:47:51;;;;;;;3.78;2.10;;;18.90;32.40;;;;;;4985471;28;115622;-82
2023/05/10 09:50:45;;;;;;;4.65;1.98;;;18.80;32.60;;;;;;4983163;28;114726;-82
2023/05/10 09:53:14;;;;;;;4.05;2.17;;;18.80;32.70;;;;;;4985678;28;114488;-81
2023/05/10 09:55:44;;;;;;;3.20;1.88;;;19.00;32.20;;;;;;4980473;28;117156;-81
2023/05/10 09:58:12;;;;;;;2.40;1.80;;;19.00;32.50;;;;;;4984284;28;114881;-81
2023/05/10 10:00:40;;;;;;;4.78;2.15;;;19.00;32.00;;;;;;4982613;28;116347;-81
2023/05/10 10:03:15;;;;;;;4.68;2.15;;;19.00;31.80;;;;;;4980615;28;114482;-80
2023/05/10 10:05:43;;;;;;;3.53;1.85;;;19.20;32.00;;;;;;4997092;28;114623;-82
2023/05/10 10:08:10;;;;;;;4.38;2.30;;;19.30;32.00;;;;;;4976800;28;114934;-83
2023/05/10 10:10:40;;;;;;;3.40;2.00;;;19.40;31.20;;;;;;4985100;28;114575;-81
2023/05/10 10:13:07;;;;;;;4.85;2.08;;;19.30;31.10;;;;;;4987375;28;114404;-81
2023/05/10 10:15:34;;;;;;;4.03;2.15;;;19.30;31.10;;;;;;5002630;28;114403;-81
2023/05/10 10:18:03;;;;;;;3.50;2.13;;;19.20;31.20;;;;;;4983488;28;117154;-81
2023/05/10 10:20:31;;;;;;;3.10;2.03;;;19.10;31.60;;;;;;4984811;28;115660;-81
2023/05/10 10:22:58;;;;;;;3.33;2.00;;;19.20;31.50;;;;;;4991334;28;114487;-81
2023/05/10 10:25:25;;;;;;;3.50;1.98;;;19.30;31.70;;;;;;4985108;28;114730;-81
2023/05/10 10:27:53;;;;;;;2.97;1.90;;;19.50;31.30;;;;;;4985056;28;114948;-81
2023/05/10 10:30:32;;;;;;;3.00;2.10;;;19.50;30.70;;;;;;4985008;28;114646;-80
2023/05/10 10:33:10;;;;;;;5.25;2.22;;;19.50;30.70;;;;;;5002608;28;114255;-81
2023/05/10 10:35:53;;;;;;;4.30;2.20;;;19.40;30.80;;;;;;4988216;28;116437;-81
2023/05/10 10:38:22;;;;;;;3.80;1.92;;;19.30;31.10;;;;;;4985730;28;115756;-79
2023/05/10 10:41:02;;;;;;;4.10;1.90;;;19.30;30.10;;;;;;4986001;28;114858;-80
2023/05/10 10:43:30;;;;;;;4.03;1.80;;;19.30;30.80;;;;;;4987506;28;114365;-80
2023/05/10 10:46:14;;;;;;;6.55;1.90;;;19.10;30.80;;;;;;4987519;28;114294;-80
2023/05/10 10:49:07;;;;;;;3.30;1.90;;;19.20;30.60;;;;;;4987016;28;114921;-81
2023/05/10 10:51:38;;;;;;;5.00;1.92;;;19.10;29.80;;;;;;4987307;28;116163;-80
2023/05/10 10:54:12;;;;;;;4.05;2.10;;;18.90;29.90;;;;;;4987657;28;114315;-81
2023/05/10 10:56:39;;;;;;;2.95;1.73;;;18.80;30.10;;;;;;4987616;28;118339;-81
2023/05/10 10:59:06;;;;;;;5.18;1.83;;;18.80;31.20;;;;;;4986148;28;115458;-81
2023/05/10 11:01:34;;;;;;;4.22;2.00;;;18.80;30.20;;;;;;4985432;28;114642;-80
2023/05/10 11:04:06;;;;;;;3.90;1.73;;;18.80;30.50;;;;;;5002032;28;114274;-80
2023/05/10 11:06:34;;;;;;;3.28;1.88;;;18.70;30.60;;;;;;4987063;28;114450;-80
2023/05/10 11:09:08;;;;;;;4.03;2.00;;;18.70;30.50;;;;;;4985038;28;115068;-80
2023/05/10 11:11:35;;;;;;;4.93;2.25;;;18.80;30.60;;;;;;4985724;28;114727;-80
2023/05/10 11:14:05;;;;;;;4.20;1.70;;;18.80;30.60;;;;;;4986147;28;114465;-80
2023/05/10 11:16:42;;;;;;;5.53;2.20;;;18.80;30.80;;;;;;4986877;28;114389;-80
2023/05/10 11:19:14;;;;;;;3.00;1.90;;;18.90;30.70;;;;;;4999582;28;115504;-80
2023/05/10 11:22:03;;;;;;;2.55;1.70;;;18.90;30.80;;;;;;4984616;28;114794;-80
2023/05/10 11:24:30;;;;;;;3.88;1.60;;;19.00;30.10;;;;;;4988206;28;114217;-81
2023/05/10 11:26:57;;;;;;;3.55;1.70;;;18.70;30.30;;;;;;4989128;28;114365;-80
2023/05/10 11:29:26;;;;;;;5.07;1.77;;;18.40;31.00;;;;;;4984644;28;114968;-81
2023/05/10 11:31:53;;;;;;;2.83;1.83;;;18.30;31.30;;;;;;4985867;28;114644;-80
2023/05/10 11:34:24;;;;;;;4.03;1.92;;;18.20;31.40;;;;;;4952486;28;114768;-80
2023/05/10 11:36:53;;;;;;;3.55;1.80;;;18.20;31.60;;;;;;4986816;28;114454;-80
2023/05/10 11:39:22;;;;;;;3.28;1.88;;;18.20;31.70;;;;;;4983711;28;115031;-80
2023/05/10 11:41:49;;;;;;;4.93;1.75;;;18.30;31.40;;;;;;4968348;28;114701;-81
2023/05/10 11:44:16;;;;;;;2.70;1.60;;;18.50;31.20;;;;;;4986923;28;114340;-81
2023/05/10 11:46:43;;;;;;;2.40;1.50;;;18.50;30.90;;;;;;4985024;28;116856;-80
2023/05/10 11:49:13;;;;;;;3.33;1.70;;;18.40;31.20;;;;;;4985685;28;115914;-80
2023/05/10 11:51:42;;;;;;;4.75;1.73;;;18.50;31.30;;;;;;4982623;28;115594;-81
2023/05/10 11:54:10;;;;;;;2.30;1.50;;;18.50;31.30;;;;;;4986470;28;114231;-83
2023/05/10 11:56:41;;;;;;;3.42;1.70;;;18.60;31.10;;;;;;4979628;28;114728;-82
2023/05/10 11:59:08;;;;;;;3.13;1.77;;;18.60;31.10;;;;;;4984307;28;114919;-82
2023/05/10 12:01:35;;;;;;;5.55;1.65;;;18.60;31.20;;;;;;4985295;28;114608;-81
2023/05/10 12:04:03;;;;;;;3.50;2.13;;;18.60;31.20;;;;;;4982961;28;114367;-81
2023/05/10 12:06:32;;;;;;;4.78;2.80;;;18.80;31.20;;;;;;5001866;28;114499;-82
2023/05/10 12:09:03;;;;;;;5.07;3.05;;;18.80;31.50;;;;;;4981104;28;118575;-81
2023/05/10 12:11:32;;;;;;;5.68;3.47;;;18.90;31.20;;;;;;4999507;28;115317;-81
2023/05/10 12:14:00;;;;;;;4.43;2.13;;;18.80;31.50;;;;;;4990108;28;114708;-83
2023/05/10 12:16:28;;;;;;;3.63;1.90;;;18.80;31.20;;;;;;4967858;28;116221;-82
2023/05/10 12:18:57;;;;;;;4.57;2.20;;;18.80;31.10;;;;;;4985115;28;114796;-82
2023/05/10 12:21:25;;;;;;;4.45;2.38;;;18.90;31.40;;;;;;4998555;28;114704;-81
2023/05/10 12:23:53;;;;;;;5.18;2.00;;;19.00;31.50;;;;;;4977113;28;115461;-82
2023/05/10 12:26:27;;;;;;;4.90;2.08;;;19.10;31.50;;;;;;4986235;28;114280;-82
2023/05/10 12:28:55;;;;;;;4.72;2.10;;;19.20;31.80;;;;;;4984959;28;115027;-81
2023/05/10 12:31:22;;;;;;;4.28;2.00;;;19.30;31.90;;;;;;4981693;28;116719;-82
2023/05/10 12:33:50;;;;;;;5.10;2.00;;;19.30;31.70;;;;;;4986169;28;114130;-80
2023/05/10 12:36:23;;;;;;;5.30;2.20;;;19.20;31.90;;;;;;4984740;28;114265;-81
2023/05/10 12:38:52;;;;;;;3.20;1.70;;;19.10;32.40;;;;;;4983751;28;116397;-81
2023/05/10 12:41:19;;;;;;;3.10;1.80;;;19.10;32.50;;;;;;4985677;28;114734;-81
2023/05/10 12:43:47;;;;;;;5.55;2.20;;;19.00;31.80;;;;;;4979056;28;114570;-81
2023/05/10 12:46:16;;;;;;;3.90;1.88;;;18.90;32.20;;;;;;4982281;28;114565;-82